createdAt,value
2023-03-05T00:00:23.781Z,72.40
2023-03-05T00:02:27.689Z,72.05
2023-03-05T00:04:33.062Z,72.30
2023-03-05T00:06:36.911Z,72.10
2023-03-05T00:08:41.211Z,72.46
2023-03-05T00:10:44.846Z,72.20
2023-03-05T00:12:48.679Z,72.47
2023-03-05T00:14:53.271Z,72.30
2023-03-05T00:16:56.845Z,72.24
2023-03-05T00:19:02.359Z,72.09
2023-03-05T00:21:18.713Z,72.03
2023-03-05T00:23:22.390Z,71.95
2023-03-05T00:25:26.063Z,72.35
2023-03-05T00:27:29.818Z,72.15
2023-03-05T00:29:34.927Z,72.39
2023-03-05T00:31:39.402Z,72.10
2023-03-05T00:33:43.982Z,72.39
2023-03-05T00:35:48.529Z,72.48
2023-03-05T00:37:54.095Z,72.38
2023-03-05T00:39:57.548Z,72.18
2023-03-05T00:42:01.183Z,72.39
2023-03-05T00:44:05.222Z,71.94
2023-03-05T00:46:08.797Z,72.37
2023-03-05T00:48:12.357Z,72.42
2023-03-05T00:50:15.628Z,72.37
2023-03-05T00:52:19.063Z,72.35
2023-03-05T00:54:23.713Z,72.65
2023-03-05T00:56:28.113Z,72.46
2023-03-05T00:58:31.448Z,72.40
2023-03-05T01:00:34.823Z,72.71
2023-03-05T01:02:38.332Z,72.67
2023-03-05T01:04:41.724Z,72.47
2023-03-05T01:06:46.380Z,72.32
2023-03-05T01:08:50.535Z,72.63
2023-03-05T01:10:55.482Z,72.83
2023-03-05T01:12:58.913Z,72.79
2023-03-05T01:15:02.208Z,72.51
2023-03-05T01:17:05.845Z,72.41
2023-03-05T01:19:09.585Z,72.67
2023-03-05T01:21:12.903Z,72.39
2023-03-05T01:23:16.958Z,72.68
2023-03-05T01:25:21.346Z,72.63
2023-03-05T01:27:25.990Z,72.82
2023-03-05T01:29:29.415Z,72.21
2023-03-05T01:31:32.896Z,72.53
2023-03-05T01:33:36.565Z,72.25
2023-03-05T01:35:40.060Z,72.07
2023-03-05T01:37:43.685Z,72.40
2023-03-05T01:39:47.052Z,72.15
2023-03-05T01:41:50.381Z,72.13
2023-03-05T01:43:55.175Z,72.04
2023-03-05T01:46:24.044Z,72.35
2023-03-05T01:48:27.724Z,72.24
2023-03-05T01:50:31.145Z,72.48
2023-03-05T01:52:37.905Z,71.84
2023-03-05T01:54:46.110Z,71.98
2023-03-05T01:56:51.593Z,72.39
2023-03-05T01:59:03.648Z,72.28
2023-03-05T02:01:07.428Z,72.14
2023-03-05T02:03:13.798Z,72.07
2023-03-05T02:05:20.752Z,72.31
2023-03-05T02:07:24.840Z,72.18
2023-03-05T02:09:29.655Z,72.47
2023-03-05T02:11:34.098Z,71.94
2023-03-05T02:13:40.915Z,72.04
2023-03-05T02:15:47.414Z,72.37
2023-03-05T02:17:51.101Z,72.22
2023-03-05T02:19:55.865Z,72.46
2023-03-05T02:22:00.747Z,72.25
2023-03-05T02:24:04.021Z,72.13
2023-03-05T02:26:10.306Z,72.05
2023-03-05T02:28:17.702Z,71.74
2023-03-05T02:30:21.646Z,71.64
2023-03-05T02:32:25.252Z,71.58
2023-03-05T02:34:28.758Z,71.65
2023-03-05T02:36:32.369Z,71.62
2023-03-05T02:38:37.369Z,71.60
2023-03-05T02:40:41.020Z,71.93
2023-03-05T02:42:45.106Z,71.91
2023-03-05T02:44:49.710Z,71.50
2023-03-05T02:46:53.145Z,71.67
2023-03-05T02:48:56.530Z,71.78
2023-03-05T02:51:01.174Z,71.88
2023-03-05T02:53:04.672Z,71.48
2023-03-05T02:55:10.401Z,71.63
2023-03-05T02:57:15.015Z,71.98
2023-03-05T02:59:18.265Z,72.35
2023-03-05T03:01:21.598Z,71.99
2023-03-05T03:03:25.252Z,72.14
2023-03-05T03:05:28.587Z,71.78
2023-03-05T03:07:31.982Z,71.99
2023-03-05T03:09:35.673Z,72.39
2023-03-05T03:11:40.349Z,71.94
2023-03-05T03:13:43.612Z,72.05
2023-03-05T03:15:47.339Z,72.24
2023-03-05T03:17:50.754Z,72.26
2023-03-05T03:19:54.067Z,72.04
2023-03-05T03:21:57.406Z,72.18
2023-03-05T03:24:00.669Z,72.29
2023-03-05T03:26:03.978Z,72.70
2023-03-05T03:28:08.864Z,72.79
2023-03-05T03:30:13.423Z,72.47
2023-03-05T03:32:16.811Z,72.69
2023-03-05T03:34:20.741Z,72.43
2023-03-05T03:36:24.048Z,72.83
2023-03-05T03:38:27.468Z,73.00
2023-03-05T03:40:31.375Z,73.00
2023-03-05T03:42:34.708Z,73.02
2023-03-05T03:44:39.422Z,72.91
2023-03-05T03:46:44.481Z,73.39
2023-03-05T03:48:51.737Z,73.31
2023-03-05T03:50:55.082Z,73.15
2023-03-05T03:52:58.402Z,73.17
2023-03-05T03:55:02.507Z,73.00
2023-03-05T03:57:06.074Z,73.34
2023-03-05T03:59:10.095Z,73.45
2023-03-05T04:01:14.913Z,73.35
2023-03-05T04:03:18.175Z,73.64
2023-03-05T04:05:21.496Z,73.53
2023-03-05T04:07:24.865Z,73.61
2023-03-05T04:09:28.180Z,73.53
2023-03-05T04:11:31.574Z,73.79
2023-03-05T04:13:34.913Z,73.88
2023-03-05T04:15:38.264Z,73.85
2023-03-05T04:17:43.043Z,73.95
2023-03-05T04:19:46.831Z,73.85
2023-03-05T04:21:50.082Z,73.90
2023-03-05T04:23:53.408Z,74.09
2023-03-05T04:25:56.844Z,74.09
2023-03-05T04:28:00.116Z,74.33
2023-03-05T04:30:03.559Z,74.59
2023-03-05T04:32:07.314Z,74.26
2023-03-05T04:34:12.151Z,74.38
2023-03-05T04:36:15.430Z,74.42
2023-03-05T04:38:19.221Z,74.64
2023-03-05T04:40:22.813Z,74.86
2023-03-05T04:42:26.298Z,74.98
2023-03-05T04:44:29.857Z,74.93
2023-03-05T04:46:33.391Z,74.82
2023-03-05T04:48:36.856Z,75.17
2023-03-05T04:50:41.777Z,75.18
2023-03-05T04:52:46.504Z,75.14
2023-03-05T04:54:49.846Z,75.47
2023-03-05T04:56:53.885Z,75.16
2023-03-05T04:58:57.303Z,75.03
2023-03-05T05:01:03.642Z,75.14
2023-03-05T05:03:07.068Z,75.67
2023-03-05T05:05:11.974Z,75.72
2023-03-05T05:07:16.784Z,75.57
2023-03-05T05:09:20.073Z,75.63
2023-03-05T05:11:23.281Z,75.52
2023-03-05T05:13:26.838Z,75.64
2023-03-05T05:15:30.136Z,75.33
2023-03-05T05:17:34.259Z,75.41
2023-03-05T05:19:37.870Z,75.50
2023-03-05T05:21:41.338Z,75.63
2023-03-05T05:23:46.239Z,75.61
2023-03-05T05:25:57.907Z,75.61
2023-03-05T05:28:01.155Z,75.54
2023-03-05T05:30:04.930Z,75.72
2023-03-05T05:32:08.904Z,75.67
2023-03-05T05:34:12.257Z,75.57
2023-03-05T05:36:19.344Z,75.44
2023-03-05T05:38:22.624Z,76.00
2023-03-05T05:40:27.292Z,75.88
2023-03-05T05:42:30.752Z,76.00
2023-03-05T05:44:35.029Z,76.03
2023-03-05T05:46:38.491Z,75.92
2023-03-05T05:48:41.932Z,76.41
2023-03-05T05:50:45.198Z,75.95
2023-03-05T05:52:48.611Z,76.06
2023-03-05T05:54:51.984Z,76.21
2023-03-05T05:56:56.691Z,76.22
2023-03-05T05:59:00.031Z,76.19
2023-03-05T06:01:04.227Z,76.06
2023-03-05T06:03:08.008Z,76.21
2023-03-05T06:05:14.894Z,76.06
2023-03-05T06:07:18.247Z,76.23
2023-03-05T06:09:21.754Z,76.36
2023-03-05T06:11:25.243Z,76.34
2023-03-05T06:13:29.865Z,76.44
2023-03-05T06:15:33.425Z,76.57
2023-03-05T06:17:36.962Z,76.45
2023-03-05T06:19:40.202Z,76.56
2023-03-05T06:21:43.642Z,76.25
2023-03-05T06:23:48.341Z,76.26
2023-03-05T06:25:51.924Z,76.29
2023-03-05T06:27:55.173Z,76.34
2023-03-05T06:30:00.373Z,76.27
2023-03-05T06:32:03.640Z,76.42
2023-03-05T06:34:06.888Z,76.28
2023-03-05T06:36:11.986Z,76.69
2023-03-05T06:38:15.274Z,76.57
2023-03-05T06:40:18.651Z,76.78
2023-03-05T06:42:22.671Z,76.71
2023-03-05T06:44:26.094Z,76.83
2023-03-05T06:46:32.332Z,76.57
2023-03-05T06:48:36.316Z,76.89
2023-03-05T06:50:39.782Z,77.12
2023-03-05T06:52:43.557Z,77.04
2023-03-05T06:54:46.751Z,76.97
2023-03-05T06:56:50.109Z,76.93
2023-03-05T06:58:53.788Z,77.25
2023-03-05T07:00:57.347Z,77.36
2023-03-05T07:03:02.125Z,77.44
2023-03-05T07:05:06.179Z,77.43
2023-03-05T07:07:09.560Z,77.59
2023-03-05T07:09:15.888Z,77.31
2023-03-05T07:11:21.420Z,77.50
2023-03-05T07:13:24.721Z,77.54
2023-03-05T07:15:28.093Z,77.25
2023-03-05T07:17:31.333Z,77.49
2023-03-05T07:19:36.034Z,77.47
2023-03-05T07:21:40.047Z,77.32
2023-03-05T07:23:43.536Z,77.51
2023-03-05T07:25:46.846Z,77.18
2023-03-05T07:27:50.221Z,77.47
2023-03-05T07:29:53.438Z,77.31
2023-03-05T07:31:56.958Z,77.44
2023-03-05T07:34:02.755Z,77.61
2023-03-05T07:36:09.255Z,77.39
2023-03-05T07:38:12.509Z,77.48
2023-03-05T07:40:15.849Z,77.26
2023-03-05T07:42:19.107Z,77.31
2023-03-05T07:44:32.960Z,77.36
2023-03-05T07:46:37.343Z,77.72
2023-03-05T07:48:40.694Z,77.93
2023-03-05T07:50:44.088Z,77.50
2023-03-05T07:52:48.853Z,77.60
2023-03-05T07:54:52.159Z,77.63
2023-03-05T07:56:56.429Z,77.98
2023-03-05T07:59:00.050Z,77.93
2023-03-05T08:01:03.612Z,77.89
2023-03-05T08:03:08.012Z,78.00
2023-03-05T08:05:11.540Z,78.18
2023-03-05T08:07:16.061Z,77.74
2023-03-05T08:09:21.135Z,77.55
2023-03-05T08:11:24.679Z,77.77
2023-03-05T08:13:27.976Z,77.67
2023-03-05T08:15:31.979Z,77.82
2023-03-05T08:17:35.986Z,78.16
2023-03-05T08:19:39.994Z,78.27
2023-03-05T08:21:44.192Z,77.88
2023-03-05T08:23:49.075Z,77.80
2023-03-05T08:25:55.170Z,77.92
2023-03-05T08:28:00.523Z,78.11
2023-03-05T08:30:05.092Z,78.19
2023-03-05T08:32:08.968Z,78.06
2023-03-05T08:34:12.880Z,78.26
2023-03-05T08:36:20.022Z,77.91
2023-03-05T08:38:24.469Z,78.18
2023-03-05T08:40:28.428Z,77.87
2023-03-05T08:42:34.294Z,77.53
2023-03-05T08:44:38.637Z,77.73
2023-03-05T08:46:42.946Z,77.61
2023-03-05T08:48:47.166Z,77.00
2023-03-05T08:50:51.296Z,77.21
2023-03-05T08:52:57.065Z,76.44
2023-03-05T08:55:01.098Z,76.08
2023-03-05T08:57:06.258Z,76.21
2023-03-05T08:59:13.593Z,76.01
2023-03-05T09:01:17.635Z,76.21
2023-03-05T09:03:22.544Z,75.72
2023-03-05T09:05:26.900Z,75.98
2023-03-05T09:07:31.115Z,75.80
2023-03-05T09:09:35.427Z,75.65
2023-03-05T09:11:39.689Z,76.00
2023-03-05T09:13:44.151Z,76.45
2023-03-05T09:15:56.124Z,76.15
2023-03-05T09:18:01.709Z,76.25
2023-03-05T09:20:09.453Z,75.94
2023-03-05T09:22:14.903Z,75.82
2023-03-05T09:24:19.963Z,75.76
2023-03-05T09:26:24.646Z,75.59
2023-03-05T09:28:29.699Z,76.09
2023-03-05T09:30:35.833Z,75.97
2023-03-05T09:32:41.776Z,76.15
2023-03-05T09:34:45.944Z,75.75
2023-03-05T09:36:50.895Z,75.85
2023-03-05T09:38:55.325Z,75.44
2023-03-05T09:41:07.642Z,75.08
2023-03-05T09:43:23.955Z,74.44
2023-03-05T09:45:30.590Z,74.50
2023-03-05T09:47:53.304Z,74.05
2023-03-05T09:50:04.204Z,73.23
2023-03-05T09:52:17.808Z,73.78
2023-03-05T09:54:27.449Z,73.42
2023-03-05T09:56:37.601Z,73.00
2023-03-05T09:58:44.697Z,73.58
2023-03-05T10:00:51.558Z,73.99
2023-03-05T10:03:03.024Z,74.14
2023-03-05T10:05:15.236Z,74.25
2023-03-05T10:07:23.252Z,73.72
2023-03-05T10:09:43.230Z,74.10
2023-03-05T10:11:55.249Z,74.22
2023-03-05T10:13:59.834Z,74.34
2023-03-05T10:16:17.574Z,74.15
2023-03-05T10:18:28.811Z,73.87
2023-03-05T10:20:51.825Z,73.93
2023-03-05T10:23:17.647Z,73.61
2023-03-05T10:25:27.383Z,73.92
2023-03-05T10:27:43.502Z,73.52
2023-03-05T10:30:03.905Z,73.51
2023-03-05T10:32:20.867Z,73.70
2023-03-05T10:34:44.838Z,73.62
2023-03-05T10:37:11.935Z,73.29
2023-03-05T10:39:44.424Z,72.56
2023-03-05T10:42:03.049Z,72.79
2023-03-05T10:44:16.883Z,73.42
2023-03-05T10:46:24.302Z,73.04
2023-03-05T10:48:35.997Z,73.04
2023-03-05T10:50:46.221Z,72.75
2023-03-05T10:52:57.535Z,72.41
2023-03-05T10:55:01.748Z,72.28
2023-03-05T10:57:18.702Z,72.39
2023-03-05T10:59:23.464Z,72.79
2023-03-05T11:01:29.485Z,73.04
2023-03-05T11:03:51.067Z,73.28
2023-03-05T11:06:03.391Z,74.07
2023-03-05T11:08:26.106Z,74.27
2023-03-05T11:10:30.353Z,74.61
2023-03-05T11:12:36.002Z,74.43
2023-03-05T11:14:42.138Z,74.89
2023-03-05T11:16:49.493Z,74.92
2023-03-05T11:19:19.508Z,75.22
2023-03-05T11:21:28.163Z,74.91
2023-03-05T11:23:32.058Z,74.46
2023-03-05T11:25:48.255Z,74.25
2023-03-05T11:27:56.376Z,73.90
2023-03-05T11:30:01.114Z,73.90
2023-03-05T11:32:22.494Z,74.20
2023-03-05T11:34:35.779Z,73.95
2023-03-05T11:36:43.112Z,74.22
2023-03-05T11:38:52.280Z,74.52
2023-03-05T11:40:58.913Z,74.63
2023-03-05T11:43:03.530Z,74.37
2023-03-05T11:45:16.435Z,74.29
2023-03-05T11:47:32.086Z,73.81
2023-03-05T11:49:43.409Z,74.30
2023-03-05T11:51:53.526Z,74.27
2023-03-05T11:54:07.520Z,74.49
2023-03-05T11:56:20.464Z,74.50
2023-03-05T11:58:32.850Z,74.98
2023-03-05T12:00:43.484Z,75.28
2023-03-05T12:02:56.476Z,75.43
2023-03-05T12:05:03.938Z,75.69
2023-03-05T12:07:15.199Z,75.54
2023-03-05T12:09:25.486Z,75.21
2023-03-05T12:11:31.767Z,74.99
2023-03-05T12:13:41.689Z,75.29
2023-03-05T12:16:16.803Z,75.38
2023-03-05T12:18:30.905Z,75.97
2023-03-05T12:20:44.385Z,75.47
2023-03-05T12:22:49.977Z,75.28
2023-03-05T12:24:54.347Z,74.91
2023-03-05T12:27:09.931Z,74.71
2023-03-05T12:29:31.112Z,74.03
2023-03-05T12:31:39.804Z,74.46
2023-03-05T12:33:44.464Z,74.89
2023-03-05T12:35:49.535Z,75.16
2023-03-05T12:38:25.633Z,75.06
2023-03-05T12:40:31.077Z,75.56
2023-03-05T12:42:55.483Z,76.09
2023-03-05T12:45:31.007Z,77.13
2023-03-05T12:47:35.430Z,77.56
2023-03-05T12:49:40.985Z,78.27
2023-03-05T12:51:45.106Z,78.97
2023-03-05T12:53:52.597Z,79.62
2023-03-05T12:56:04.190Z,80.24
2023-03-05T12:58:16.052Z,80.25
2023-03-05T13:00:26.828Z,80.39
2023-03-05T13:02:35.873Z,80.82
2023-03-05T13:04:46.936Z,81.57
2023-03-05T13:07:00.207Z,82.13
2023-03-05T13:09:09.434Z,82.51
2023-03-05T13:11:20.137Z,81.77
2023-03-05T13:13:25.799Z,81.62
2023-03-05T13:15:30.457Z,82.03
2023-03-05T13:17:39.407Z,81.14
2023-03-05T13:19:43.557Z,81.13
2023-03-05T13:21:47.298Z,81.02
2023-03-05T13:23:58.106Z,80.34
2023-03-05T13:26:11.113Z,80.58
2023-03-05T13:28:16.580Z,79.79
2023-03-05T13:30:25.915Z,80.18
2023-03-05T13:32:32.565Z,79.87
2023-03-05T13:34:47.100Z,80.19
2023-03-05T13:36:57.788Z,79.45
2023-03-05T13:39:04.215Z,80.03
2023-03-05T13:41:21.583Z,79.95
2023-03-05T13:43:25.253Z,80.35
2023-03-05T13:45:31.378Z,80.73
2023-03-05T13:47:37.167Z,80.48
2023-03-05T13:49:40.691Z,80.72
2023-03-05T13:51:45.048Z,81.27
2023-03-05T13:53:49.208Z,81.69
2023-03-05T13:55:54.750Z,81.59
2023-03-05T13:57:59.800Z,82.09
2023-03-05T14:00:03.869Z,82.13
2023-03-05T14:02:17.417Z,82.22
2023-03-05T14:04:23.544Z,82.76
2023-03-05T14:06:31.149Z,82.50
2023-03-05T14:08:35.118Z,82.50
2023-03-05T14:10:40.616Z,82.21
2023-03-05T14:12:45.531Z,82.29
2023-03-05T14:14:51.338Z,81.62
2023-03-05T14:16:55.034Z,81.41
2023-03-05T14:19:01.324Z,81.35
2023-03-05T14:21:07.772Z,80.99
2023-03-05T14:23:34.665Z,80.93
2023-03-05T14:25:40.432Z,80.54
2023-03-05T14:27:44.242Z,80.57
2023-03-05T14:29:48.783Z,80.53
2023-03-05T14:31:56.228Z,80.69
2023-03-05T14:34:04.684Z,80.76
2023-03-05T14:36:10.887Z,80.01
2023-03-05T14:38:23.796Z,80.37
2023-03-05T14:40:31.745Z,80.62
2023-03-05T14:42:39.222Z,79.96
2023-03-05T14:44:43.970Z,79.03
2023-03-05T14:46:51.546Z,77.91
2023-03-05T14:48:56.712Z,77.47
2023-03-05T14:51:01.529Z,76.21
2023-03-05T14:53:09.196Z,75.31
2023-03-05T14:55:17.209Z,75.11
2023-03-05T14:57:24.568Z,75.12
2023-03-05T14:59:28.276Z,75.02
2023-03-05T15:01:32.109Z,74.66
2023-03-05T15:03:36.016Z,74.69
2023-03-05T15:05:41.010Z,74.03
2023-03-05T15:07:46.489Z,73.91
2023-03-05T15:09:50.248Z,73.29
2023-03-05T15:11:53.869Z,74.13
2023-03-05T15:13:57.575Z,74.15
2023-03-05T15:16:01.455Z,73.72
2023-03-05T15:18:05.149Z,72.90
2023-03-05T15:20:13.365Z,72.51
2023-03-05T15:22:19.102Z,72.60
2023-03-05T15:24:22.709Z,72.70
2023-03-05T15:26:26.379Z,72.52
2023-03-05T15:28:30.265Z,70.71
2023-03-05T15:30:35.081Z,70.37
2023-03-05T15:32:38.988Z,70.36
2023-03-05T15:34:42.552Z,70.12
2023-03-05T15:36:46.413Z,69.24
2023-03-05T15:38:51.949Z,68.95
2023-03-05T15:40:55.936Z,68.82
2023-03-05T15:43:01.103Z,68.58
2023-03-05T15:45:05.228Z,69.05
2023-03-05T15:47:09.155Z,69.62
2023-03-05T15:49:12.909Z,69.46
2023-03-05T15:51:16.559Z,68.98
2023-03-05T15:53:21.803Z,69.30
2023-03-05T15:55:27.652Z,69.93
2023-03-05T15:57:31.703Z,69.79
2023-03-05T15:59:35.159Z,70.20
2023-03-05T16:01:39.386Z,70.70
2023-03-05T16:03:43.504Z,70.87
2023-03-05T16:05:48.352Z,70.64
2023-03-05T16:07:54.233Z,70.79
2023-03-05T16:09:59.252Z,71.19
2023-03-05T16:12:05.733Z,71.16
2023-03-05T16:14:13.622Z,72.20
2023-03-05T16:16:18.354Z,72.29
2023-03-05T16:18:23.504Z,72.47
2023-03-05T16:20:27.612Z,72.75
2023-03-05T16:22:31.184Z,72.77
2023-03-05T16:24:35.441Z,72.85
2023-03-05T16:26:41.319Z,72.88
2023-03-05T16:28:46.920Z,72.62
2023-03-05T16:30:55.156Z,73.11
2023-03-05T16:33:00.134Z,72.31
2023-03-05T16:35:03.645Z,72.18
2023-03-05T16:37:07.695Z,72.47
2023-03-05T16:39:11.456Z,72.21
2023-03-05T16:41:16.522Z,72.51
2023-03-05T16:43:19.753Z,73.34
2023-03-05T16:45:24.786Z,72.65
2023-03-05T16:47:28.981Z,73.62
2023-03-05T16:49:33.352Z,73.36
2023-03-05T16:51:37.693Z,73.16
2023-03-05T16:53:42.869Z,73.95
2023-03-05T16:55:48.411Z,73.91
2023-03-05T16:57:52.229Z,73.73
2023-03-05T16:59:56.542Z,74.20
2023-03-05T17:02:02.108Z,74.09
2023-03-05T17:04:06.021Z,74.96
2023-03-05T17:06:11.984Z,74.95
2023-03-05T17:08:15.703Z,75.07
2023-03-05T17:10:19.875Z,75.01
2023-03-05T17:12:24.422Z,74.66
2023-03-05T17:14:28.597Z,75.04
2023-03-05T17:16:32.565Z,74.72
2023-03-05T17:18:38.225Z,74.57
2023-03-05T17:20:42.404Z,74.43
2023-03-05T17:22:46.327Z,74.55
2023-03-05T17:24:50.148Z,74.55
2023-03-05T17:26:54.178Z,74.79
2023-03-05T17:28:58.139Z,74.75
2023-03-05T17:31:05.062Z,75.18
2023-03-05T17:33:08.920Z,75.62
2023-03-05T17:35:19.387Z,76.79
2023-03-05T17:37:23.850Z,76.79
2023-03-05T17:39:27.490Z,76.81
2023-03-05T17:41:31.340Z,77.21
2023-03-05T17:43:35.262Z,77.59
2023-03-05T17:45:40.050Z,77.70
2023-03-05T17:47:44.504Z,78.01
2023-03-05T17:49:49.643Z,77.99
2023-03-05T17:51:54.845Z,78.13
2023-03-05T17:53:59.323Z,78.42
2023-03-05T17:56:03.694Z,78.76
2023-03-05T17:58:08.146Z,78.51
2023-03-05T18:00:18.074Z,78.78
2023-03-05T18:02:22.629Z,79.60
2023-03-05T18:04:26.616Z,79.25
2023-03-05T18:06:31.067Z,79.72
2023-03-05T18:08:36.315Z,79.50
2023-03-05T18:10:40.103Z,79.98
2023-03-05T18:12:44.364Z,80.08
2023-03-05T18:14:48.398Z,80.23
2023-03-05T18:16:52.237Z,80.61
2023-03-05T18:18:56.936Z,81.04
2023-03-05T18:21:00.686Z,81.32
2023-03-05T18:23:05.818Z,81.43
2023-03-05T18:25:13.403Z,81.52
2023-03-05T18:27:18.343Z,82.26
2023-03-05T18:29:22.629Z,82.12
2023-03-05T18:31:26.637Z,82.59
2023-03-05T18:33:30.503Z,82.84
2023-03-05T18:35:34.031Z,83.26
2023-03-05T18:37:40.063Z,83.41
2023-03-05T18:39:44.369Z,83.60
2023-03-05T18:41:49.730Z,83.95
2023-03-05T18:43:54.709Z,84.13
2023-03-05T18:45:58.670Z,84.05
2023-03-05T18:48:02.573Z,84.29
2023-03-05T18:50:07.193Z,84.48
2023-03-05T18:52:13.932Z,84.77
2023-03-05T18:54:18.901Z,84.84
2023-03-05T18:56:23.457Z,84.80
2023-03-05T18:58:28.759Z,85.16
2023-03-05T19:00:33.921Z,85.50
2023-03-05T19:02:37.287Z,85.75
2023-03-05T19:04:41.531Z,85.53
2023-03-05T19:06:45.303Z,85.84
2023-03-05T19:08:56.736Z,85.98
2023-03-05T19:11:00.779Z,86.13
2023-03-05T19:13:18.800Z,86.39
2023-03-05T19:15:24.892Z,86.73
2023-03-05T19:17:29.011Z,87.00
2023-03-05T19:19:32.525Z,86.72
2023-03-05T19:21:36.149Z,87.06
2023-03-05T19:23:40.313Z,87.17
2023-03-05T19:25:43.995Z,87.33
2023-03-05T19:27:47.421Z,87.14
2023-03-05T19:29:53.622Z,87.21
2023-03-05T19:31:58.915Z,87.60
2023-03-05T19:34:03.602Z,87.57
2023-03-05T19:36:10.306Z,87.87
2023-03-05T19:38:14.295Z,88.21
2023-03-05T19:40:18.353Z,88.70
2023-03-05T19:42:22.148Z,89.18
2023-03-05T19:44:28.059Z,89.73
2023-03-05T19:46:32.045Z,89.41
2023-03-05T19:48:38.307Z,90.05
2023-03-05T19:50:42.288Z,90.71
2023-03-05T19:52:46.469Z,90.82
2023-03-05T19:54:51.181Z,91.31
2023-03-05T19:56:56.251Z,91.33
2023-03-05T19:58:59.552Z,91.68
2023-03-05T20:01:11.810Z,91.76
2023-03-05T20:03:15.667Z,92.00
2023-03-05T20:05:25.690Z,92.29
2023-03-05T20:07:29.594Z,93.00
2023-03-05T20:09:36.068Z,93.24
2023-03-05T20:11:40.916Z,93.51
2023-03-05T20:13:44.937Z,93.86
2023-03-05T20:15:48.447Z,94.43
2023-03-05T20:17:54.351Z,94.61
2023-03-05T20:19:59.239Z,95.13
2023-03-05T20:22:05.305Z,95.24
2023-03-05T20:24:11.932Z,95.70
2023-03-05T20:26:15.700Z,95.70
2023-03-05T20:28:26.160Z,95.87
2023-03-05T20:30:30.898Z,96.29
2023-03-05T20:32:34.936Z,96.29
2023-03-05T20:34:39.031Z,96.53
2023-03-05T20:36:44.167Z,96.54
2023-03-05T20:38:49.341Z,96.30
2023-03-05T20:40:55.142Z,96.30
2023-03-05T20:42:59.472Z,96.71
2023-03-05T20:45:04.191Z,96.55
2023-03-05T20:47:23.874Z,96.47
2023-03-05T20:49:27.570Z,96.67
2023-03-05T20:51:34.305Z,96.54
2023-03-05T20:53:38.206Z,96.71
2023-03-05T20:55:44.649Z,96.67
2023-03-05T20:57:48.260Z,96.49
2023-03-05T20:59:51.913Z,96.51
2023-03-05T21:01:55.619Z,96.77
2023-03-05T21:03:59.220Z,96.70
2023-03-05T21:06:03.832Z,96.75
2023-03-05T21:08:07.737Z,96.71
2023-03-05T21:10:12.864Z,96.31
2023-03-05T21:12:18.681Z,96.63
2023-03-05T21:14:22.998Z,96.63
2023-03-05T21:16:29.180Z,96.97
2023-03-05T21:18:33.081Z,96.66
2023-03-05T21:20:36.956Z,96.56
2023-03-05T21:22:41.161Z,96.48
2023-03-05T21:24:55.921Z,96.30
2023-03-05T21:26:59.635Z,96.30
2023-03-05T21:29:05.141Z,96.17
2023-03-05T21:31:11.420Z,96.21
2023-03-05T21:33:18.233Z,96.35
2023-03-05T21:35:24.569Z,96.19
2023-03-05T21:37:29.337Z,96.37
2023-03-05T21:39:33.103Z,96.36
2023-03-05T21:41:36.927Z,96.18
2023-03-05T21:43:40.976Z,96.58
2023-03-05T21:45:47.854Z,96.57
2023-03-05T21:47:53.615Z,96.60
2023-03-05T21:49:58.051Z,97.04
2023-03-05T21:52:09.322Z,96.80
2023-03-05T21:54:13.100Z,96.86
2023-03-05T21:56:24.667Z,97.00
2023-03-05T21:58:28.352Z,97.52
2023-03-05T22:00:31.873Z,97.34
2023-03-05T22:02:37.543Z,97.36
2023-03-05T22:04:41.312Z,97.21
2023-03-05T22:06:45.411Z,97.78
2023-03-05T22:08:49.996Z,97.52
2023-03-05T22:10:54.600Z,97.90
2023-03-05T22:13:07.158Z,98.33
2023-03-05T22:15:12.357Z,98.48
2023-03-05T22:17:15.955Z,98.28
2023-03-05T22:19:21.142Z,98.24
2023-03-05T22:21:27.644Z,98.83
2023-03-05T22:23:34.451Z,99.11
2023-03-05T22:25:38.258Z,99.41
2023-03-05T22:27:42.378Z,99.79
2023-03-05T22:29:45.977Z,99.81
2023-03-05T22:31:49.888Z,99.84
2023-03-05T22:33:54.334Z,100.00
2023-03-05T22:36:00.218Z,100.00
2023-03-05T22:38:03.909Z,100.00
2023-03-05T22:40:08.865Z,100.00
2023-03-05T22:42:12.427Z,100.00
2023-03-05T22:44:16.068Z,100.00
2023-03-05T22:46:21.853Z,100.00
2023-03-05T22:48:25.568Z,100.00
2023-03-05T22:50:29.108Z,100.00
2023-03-05T22:52:34.162Z,100.00
2023-03-05T22:54:37.699Z,100.00
2023-03-05T22:56:41.396Z,100.00
2023-03-05T22:58:45.041Z,100.00
2023-03-05T23:00:49.015Z,100.00
2023-03-05T23:02:53.136Z,100.00
2023-03-05T23:04:57.925Z,100.00
2023-03-05T23:07:01.743Z,100.00
2023-03-05T23:09:06.946Z,100.00
2023-03-05T23:11:12.616Z,100.00
2023-03-05T23:13:16.379Z,100.00
2023-03-05T23:15:25.108Z,100.00
2023-03-05T23:17:28.832Z,100.00
2023-03-05T23:19:39.515Z,100.00
2023-03-05T23:21:43.266Z,100.00
2023-03-05T23:23:46.887Z,100.00
2023-03-05T23:25:53.405Z,100.00
2023-03-05T23:27:58.190Z,100.00
2023-03-05T23:30:12.828Z,100.00
2023-03-05T23:32:16.524Z,100.00
2023-03-05T23:34:20.145Z,100.00
2023-03-05T23:36:25.615Z,100.00
2023-03-05T23:38:30.865Z,100.00
2023-03-05T23:40:36.906Z,100.00
2023-03-05T23:42:43.386Z,100.00
2023-03-05T23:44:46.913Z,100.00
2023-03-05T23:46:50.529Z,100.00
2023-03-05T23:48:54.045Z,100.00
2023-03-05T23:50:57.666Z,100.00
2023-03-05T23:53:02.457Z,100.00
2023-03-05T23:55:07.021Z,100.00
2023-03-05T23:57:10.682Z,100.00
2023-03-05T23:59:15.672Z,100.00
